createdAt,value
2018-11-22T08:43:50.379Z,18.96
2018-11-22T08:49:45.368Z,12.45
2018-11-22T08:55:40.382Z,15.2
2018-11-22T09:01:35.380Z,15.96
2018-11-22T09:07:30.393Z,15.5
2018-11-22T09:13:25.374Z,17.69
2018-11-22T09:19:20.412Z,14.72
2018-11-22T09:25:15.388Z,17.96
2018-11-22T09:31:10.424Z,15.47
2018-11-22T09:37:05.412Z,17.4
2018-11-22T09:43:00.441Z,16.25
2018-11-22T09:48:55.446Z,18.06
2018-11-22T09:54:50.419Z,18.67
2018-11-22T10:00:45.427Z,14.53
2018-11-22T10:06:40.437Z,19.17
2018-11-22T10:12:35.495Z,18.17
2018-11-22T10:18:30.466Z,18.31
2018-11-22T10:24:25.472Z,12.86
2018-11-22T10:30:20.540Z,14.36
2018-11-22T10:36:15.512Z,9.57
2018-11-22T10:42:10.435Z,10.2
2018-11-22T10:48:05.449Z,8.4
2018-11-22T10:54:00.440Z,12.39
2018-11-22T10:59:55.459Z,17.89
2018-11-22T11:05:50.456Z,12.09
2018-11-22T11:11:45.457Z,14.7
2018-11-22T11:17:40.446Z,15.07
2018-11-22T11:23:35.494Z,12.64
2018-11-22T11:29:30.490Z,12.98
2018-11-22T11:35:25.456Z,16.02
2018-11-22T11:41:20.485Z,15.82
2018-11-22T11:47:15.472Z,12.55
2018-11-22T11:53:10.486Z,13.92
2018-11-22T11:59:05.534Z,13.42
2018-11-22T12:05:00.488Z,10.83
2018-11-22T12:10:55.586Z,11.41
2018-11-22T12:16:50.506Z,12.99
2018-11-22T12:22:45.491Z,8.55
2018-11-22T12:28:40.518Z,10.49
2018-11-22T12:34:35.507Z,11.33
2018-11-22T12:40:30.516Z,11.64
2018-11-22T12:46:25.511Z,16.98
2018-11-22T12:52:20.514Z,13.88
2018-11-22T12:58:15.513Z,14.06
2018-11-22T13:04:10.572Z,18.4
2018-11-22T13:10:05.526Z,13.44
2018-11-22T13:16:00.532Z,13.11
2018-11-22T13:21:55.565Z,13.96
2018-11-22T13:27:50.533Z,14.02
2018-11-22T13:33:45.562Z,7.26
2018-11-22T13:39:40.549Z,3.98
2018-11-22T13:45:35.562Z,5.73
2018-11-22T13:51:30.558Z,5.64
2018-11-22T13:57:25.563Z,5.87
2018-11-22T14:03:20.610Z,4.08
2018-11-22T14:09:15.609Z,6.29
2018-11-22T14:15:10.591Z,4.95
2018-11-22T14:21:05.618Z,5.28
2018-11-22T14:27:00.567Z,2.72
2018-11-22T14:32:55.582Z,31.6
2018-11-22T14:38:50.626Z,12.57
2018-11-22T14:44:45.598Z,25.96
2018-11-22T14:50:40.613Z,9.24
2018-11-22T14:56:35.609Z,35.32
2018-11-22T15:02:30.601Z,3.73
2018-11-22T15:08:25.616Z,6.25
2018-11-22T15:14:20.661Z,6.85
2018-11-22T15:20:15.605Z,4.58
2018-11-22T15:26:10.655Z,6.25
2018-11-22T15:32:05.615Z,7.82
2018-11-22T15:38:00.624Z,13.71
2018-11-22T15:43:55.617Z,13.23
2018-11-22T15:49:50.633Z,17.19
2018-11-22T15:55:45.648Z,16.47
2018-11-22T16:01:40.635Z,15.67
2018-11-22T16:07:35.649Z,15.61
2018-11-22T16:13:30.673Z,20.39
2018-11-22T16:19:25.670Z,25.24
2018-11-22T16:25:20.644Z,19.54
2018-11-22T16:31:15.649Z,20.8
2018-11-22T16:37:10.680Z,26.14
2018-11-22T16:43:05.658Z,27.65
2018-11-22T16:49:00.679Z,32.04
2018-11-22T16:54:55.675Z,24.54
2018-11-22T17:00:50.657Z,24.63
2018-11-22T17:06:45.743Z,28.08
2018-11-22T17:12:40.669Z,25.18
2018-11-22T17:18:35.669Z,58.48
2018-11-22T17:24:30.687Z,49.66
2018-11-22T17:30:25.678Z,39.73
2018-11-22T17:36:20.683Z,36.36
2018-11-22T17:42:15.685Z,34.53
2018-11-22T17:48:10.689Z,34.22
2018-11-22T17:54:05.710Z,28.65
2018-11-22T18:00:00.718Z,36.17
2018-11-22T18:05:55.717Z,27.89
2018-11-22T18:11:50.718Z,27.39
2018-11-22T18:17:45.731Z,21.35
2018-11-22T18:23:40.703Z,24.71
2018-11-22T18:29:35.714Z,22.65
2018-11-22T18:35:30.724Z,21.44
2018-11-22T18:41:25.730Z,35.85
2018-11-22T18:47:20.719Z,45.45
2018-11-22T18:53:15.736Z,34.67
2018-11-22T18:59:10.731Z,22.73
2018-11-22T19:05:06.340Z,23.23
2018-11-22T19:11:00.774Z,22.4
2018-11-22T19:16:55.727Z,23.59
2018-11-22T19:22:50.759Z,22.74
2018-11-22T19:28:45.757Z,23.76
2018-11-22T19:34:40.819Z,30.59
2018-11-22T19:40:35.765Z,31.54
2018-11-22T19:46:30.792Z,19.72
2018-11-22T19:52:25.794Z,31.63
2018-11-22T19:58:20.765Z,18.91
2018-11-22T20:04:15.788Z,24.68
2018-11-22T20:10:10.786Z,23.97
2018-11-22T20:16:05.780Z,28.46
2018-11-22T20:22:00.785Z,29.87
2018-11-22T20:27:55.825Z,26.11
2018-11-22T20:33:50.852Z,24
2018-11-22T20:39:45.811Z,30.98
2018-11-22T20:45:41.256Z,29.57
2018-11-22T20:51:35.821Z,34.37
2018-11-22T20:57:30.798Z,25.36
2018-11-22T21:03:25.805Z,26.59
2018-11-22T21:09:20.805Z,30.41
2018-11-22T21:15:15.848Z,25.36
2018-11-22T21:21:10.829Z,26.47
2018-11-22T21:27:05.816Z,25.3
2018-11-22T21:33:00.839Z,21.99
2018-11-22T21:38:55.879Z,22.55
2018-11-22T21:44:50.826Z,24.28
2018-11-22T21:50:45.912Z,29.87
2018-11-22T21:56:40.853Z,29.6
2018-11-22T22:02:35.852Z,28.54
2018-11-22T22:08:30.860Z,25.28
2018-11-22T22:14:25.858Z,25.52
2018-11-22T22:20:20.954Z,27.32
2018-11-22T22:26:15.850Z,25.65
2018-11-22T22:32:10.883Z,29.12
2018-11-22T22:38:05.866Z,25.03
2018-11-22T22:44:00.872Z,25.96
2018-11-22T22:49:55.888Z,26.23
2018-11-22T22:55:50.925Z,23.47
2018-11-22T23:01:45.877Z,27.48
2018-11-22T23:07:40.901Z,26.57
2018-11-22T23:13:35.899Z,23.53
2018-11-22T23:19:30.882Z,26.1
2018-11-22T23:25:25.901Z,23.04
2018-11-22T23:31:20.897Z,20.42
2018-11-22T23:37:15.891Z,24.01
2018-11-22T23:43:10.888Z,24.94
2018-11-22T23:49:05.919Z,19.77
2018-11-22T23:55:00.898Z,29.87
